Time;durP1;ratioP1;P1;durP2;ratioP2;P2;SDS_P1;SDS_P2;PMS_P1;PMS_P2;Temp;Humidity;BMP_temperature;BMP_pressure;BME280_temperature;BME280_humidity;BME280_pressure;Samples;Min_cycle;Max_cycle;Signal;HPM_P1;HPM_P2
2022/02/04 00:27:49;;;;;;;34.08;12.57;;;;;;;1.06;79.50;98354.56;5109809;28;20036;-68
2022/02/04 00:30:24;;;;;;;40.03;14.52;;;;;;;1.15;79.67;98355.84;5110106;28;20454;-68
2022/02/04 00:32:51;;;;;;;30.42;13.57;;;;;;;1.25;80.33;98347.13;5109958;28;20348;-67
2022/02/04 00:38:03;;;;;;;29.58;12.40;;;;;;;1.40;80.01;98351.22;5106303;28;20032;-67
2022/02/04 00:40:34;;;;;;;37.88;14.60;;;;;;;1.46;79.20;98342.97;5109908;28;20032;-68
2022/02/04 00:43:03;;;;;;;31.90;12.57;;;;;;;1.52;80.09;98332.28;5109476;28;20050;-68
2022/02/04 00:46:15;;;;;;;42.78;15.07;;;;;;;1.55;79.03;98324.53;5109572;28;20019;-68
2022/02/04 00:51:08;;;;;;;30.33;12.65;;;;;;;1.55;79.17;98318.28;5112189;28;20395;-69
2022/02/04 01:26:49;;;;;;;38.50;15.48;;;;;;;1.63;78.30;98272.75;5111411;28;20069;-66
2022/02/04 01:29:14;;;;;;;38.53;16.35;;;;;;;1.68;78.17;98269.34;5093882;28;20471;-66
2022/02/04 01:31:40;;;;;;;35.95;13.85;;;;;;;1.65;78.38;98269.81;5111882;28;20519;-67
2022/02/04 01:34:06;;;;;;;26.70;12.93;;;;;;;1.65;78.19;98267.13;5111996;28;20395;-66
2022/02/04 01:36:31;;;;;;;28.02;12.27;;;;;;;1.68;78.78;98260.38;5092924;28;20024;-66
2022/02/04 01:38:56;;;;;;;33.53;14.20;;;;;;;1.74;78.13;98251.31;5111747;28;20024;-66
2022/02/04 01:41:22;;;;;;;30.10;12.95;;;;;;;1.79;78.87;98243.28;5111819;28;20016;-66
2022/02/04 01:43:49;;;;;;;28.60;13.00;;;;;;;1.82;78.63;98237.41;5110632;28;20036;-66
2022/02/04 01:46:15;;;;;;;25.75;12.77;;;;;;;1.81;78.40;98224.94;5111867;28;20031;-66
2022/02/04 01:48:42;;;;;;;22.52;11.48;;;;;;;1.76;78.42;98235.66;5111495;28;20031;-66
2022/02/04 01:51:11;;;;;;;24.83;11.95;;;;;;;1.70;77.81;98240.19;5111506;28;20028;-67
2022/02/04 01:53:36;;;;;;;31.52;12.90;;;;;;;1.62;78.24;98238.69;5111623;28;20069;-67
2022/02/04 01:56:05;;;;;;;33.35;14.88;;;;;;;1.54;77.40;98238.25;5092544;28;20055;-67
2022/02/04 01:58:32;;;;;;;23.50;11.82;;;;;;;1.46;77.79;98231.38;5109881;28;20031;-67
2022/02/04 02:00:57;;;;;;;22.63;10.77;;;;;;;1.47;78.08;98228.41;5111590;28;20492;-67
2022/02/04 02:03:24;;;;;;;18.20;9.60;;;;;;;1.57;77.80;98218.84;5111835;28;20134;-66
2022/02/04 02:05:51;;;;;;;20.33;9.43;;;;;;;1.64;78.62;98209.50;5092653;28;20118;-66
2022/02/04 02:08:19;;;;;;;24.80;10.43;;;;;;;1.70;78.56;98207.72;5110681;28;20076;-66
2022/02/04 02:10:46;;;;;;;27.25;11.70;;;;;;;1.78;78.93;98204.63;5110187;28;20055;-67
2022/02/04 02:48:36;;;;;;;23.10;9.93;;;;;;;1.64;78.03;98182.47;5067533;28;20280;-66
2022/02/04 02:58:46;;;;;;;20.50;9.50;;;;;;;1.21;77.73;98169.56;5077534;28;20035;-66
2022/02/04 03:01:11;;;;;;;23.55;10.90;;;;;;;1.12;77.76;98156.44;5110047;28;20287;-66
2022/02/04 03:03:37;;;;;;;25.27;10.45;;;;;;;1.13;77.94;98157.28;5092054;28;20031;-66
2022/02/04 03:06:03;;;;;;;27.65;11.23;;;;;;;1.12;78.12;98163.75;5109862;28;20024;-66
2022/02/04 03:08:29;;;;;;;21.85;10.57;;;;;;;1.10;78.01;98153.16;5110221;28;20019;-66
2022/02/04 03:10:56;;;;;;;26.20;10.70;;;;;;;1.02;78.07;98162.47;5109870;28;20039;-66
2022/02/04 03:13:27;;;;;;;25.73;10.23;;;;;;;0.93;78.02;98163.13;5109753;28;20474;-66
2022/02/04 03:16:02;;;;;;;19.60;8.77;;;;;;;0.85;77.61;98165.13;5110247;28;20019;-66
2022/02/04 03:18:31;;;;;;;23.30;9.27;;;;;;;0.80;78.01;98183.13;5109850;28;20042;-65
2022/02/04 03:21:03;;;;;;;21.33;10.02;;;;;;;0.77;78.03;98178.19;5110587;28;20028;-66
2022/02/04 03:23:31;;;;;;;18.25;9.13;;;;;;;0.78;78.43;98177.94;5109713;28;20028;-65
2022/02/04 03:26:09;;;;;;;18.83;9.82;;;;;;;0.78;78.22;98177.13;5109839;28;20118;-66
2022/02/04 03:28:35;;;;;;;21.55;11.63;;;;;;;0.74;78.17;98179.47;5109953;28;20157;-66
2022/02/04 03:31:00;;;;;;;26.20;12.38;;;;;;;0.78;79.02;98166.34;5109386;28;20098;-66
2022/02/04 03:33:29;;;;;;;27.45;12.43;;;;;;;0.81;78.56;98171.25;5090174;28;20016;-66
2022/02/04 03:35:54;;;;;;;23.60;9.95;;;;;;;0.83;78.62;98169.13;5109580;28;20589;-66
2022/02/04 03:38:20;;;;;;;24.27;10.60;;;;;;;0.81;78.40;98172.06;5109120;28;20019;-66
2022/02/04 03:40:46;;;;;;;20.23;9.75;;;;;;;0.84;78.31;98176.16;5109683;28;20066;-66
2022/02/04 03:43:11;;;;;;;23.88;10.63;;;;;;;0.84;78.45;98178.84;5109884;28;20062;-66
2022/02/04 03:45:37;;;;;;;28.13;12.82;;;;;;;0.86;78.56;98184.84;5090907;28;20047;-66
2022/02/04 03:48:03;;;;;;;30.08;14.15;;;;;;;0.86;78.55;98180.28;5091261;28;20068;-66
2022/02/04 03:50:28;;;;;;;30.25;13.05;;;;;;;0.83;78.98;98175.34;5109360;28;20145;-66
2022/02/04 03:52:54;;;;;;;46.85;18.88;;;;;;;0.80;78.63;98173.13;5109443;28;20028;-66
2022/02/04 03:55:19;;;;;;;57.85;22.55;;;;;;;0.81;78.26;98165.88;5109711;28;20332;-66
2022/02/04 03:57:44;;;;;;;41.35;18.20;;;;;;;0.77;78.50;98170.91;5109300;28;20024;-67
2022/02/04 04:00:13;;;;;;;31.33;13.30;;;;;;;0.74;78.88;98168.69;5109229;28;20027;-67
2022/02/04 04:02:40;;;;;;;41.53;16.02;;;;;;;0.72;78.22;98165.41;5109221;28;20467;-67
2022/02/04 04:05:05;;;;;;;41.30;16.40;;;;;;;0.67;78.20;98174.22;5109063;28;20024;-67
2022/02/04 04:07:31;;;;;;;35.17;15.13;;;;;;;0.64;78.49;98176.56;5090650;28;20503;-66
2022/02/04 04:10:07;;;;;;;30.40;13.25;;;;;;;0.62;78.34;98178.69;5109644;28;20077;-66
2022/02/04 04:12:32;;;;;;;31.70;12.13;;;;;;;0.58;77.93;98171.09;5109123;28;20154;-66
2022/02/04 04:15:05;;;;;;;21.13;10.55;;;;;;;0.54;78.08;98169.09;5109344;28;20593;-67
2022/02/04 04:17:37;;;;;;;21.02;10.38;;;;;;;0.47;78.25;98173.78;5109517;28;20035;-67
2022/02/04 04:20:03;;;;;;;24.23;12.75;;;;;;;0.40;78.59;98168.53;5109573;28;20028;-66
2022/02/04 04:22:29;;;;;;;21.58;11.15;;;;;;;0.40;78.21;98163.97;5109014;28;20045;-66
2022/02/04 04:24:54;;;;;;;22.23;10.95;;;;;;;0.41;77.99;98154.78;5108734;28;20063;-67
2022/02/04 04:27:19;;;;;;;23.05;10.73;;;;;;;0.46;78.82;98158.66;5109304;28;20078;-67
2022/02/04 04:29:45;;;;;;;23.38;11.40;;;;;;;0.48;78.76;98162.75;5091209;28;20024;-66
2022/02/04 04:32:11;;;;;;;22.98;11.18;;;;;;;0.46;78.74;98162.19;5090834;28;20027;-67
2022/02/04 04:34:36;;;;;;;29.27;14.02;;;;;;;0.46;78.50;98169.44;5108800;28;20024;-66
2022/02/04 04:37:02;;;;;;;24.92;12.90;;;;;;;0.45;78.19;98171.34;5108665;28;20573;-66
2022/02/04 04:39:39;;;;;;;28.75;13.07;;;;;;;0.46;78.69;98170.28;5109277;28;20032;-66
2022/02/04 04:42:15;;;;;;;26.15;13.02;;;;;;;0.56;78.92;98165.09;5109039;28;20061;-67
2022/02/04 05:26:02;;;;;;;39.08;16.15;;;;;;;0.96;78.77;98151.84;5105047;28;20092;-67
2022/02/04 05:30:59;;;;;;;22.85;11.73;;;;;;;0.80;78.93;98140.72;5107677;28;20118;-67
2022/02/04 05:33:24;;;;;;;28.35;12.20;;;;;;;0.75;79.23;98129.81;5108261;28;20096;-67
2022/02/04 05:35:50;;;;;;;25.77;11.77;;;;;;;0.71;78.60;98132.19;5108596;28;20481;-66
2022/02/04 05:38:16;;;;;;;30.15;14.32;;;;;;;0.72;79.19;98133.84;5092580;28;20024;-66
2022/02/04 05:40:45;;;;;;;39.50;17.42;;;;;;;0.71;78.66;98134.91;5112264;28;20019;-66
2022/02/04 05:43:24;;;;;;;36.95;16.45;;;;;;;0.70;79.54;98140.53;5111715;28;20051;-67
2022/02/04 05:46:03;;;;;;;28.75;14.13;;;;;;;0.69;79.00;98138.88;5111552;28;20027;-66
2022/02/04 05:48:32;;;;;;;31.02;15.25;;;;;;;0.65;79.38;98132.31;5111552;28;20024;-66
2022/02/04 05:53:53;;;;;;;28.77;14.88;;;;;;;0.66;79.22;98133.97;5111607;28;20019;-67
2022/02/04 06:01:37;;;;;;;31.13;15.02;;;;;;;0.70;79.99;98125.16;5112070;28;20031;-66
2022/02/04 06:22:53;;;;;;;35.88;15.77;;;;;;;0.77;79.96;98122.31;5111125;28;20038;-65
2022/02/04 06:25:19;;;;;;;36.53;16.55;;;;;;;0.79;80.25;98128.28;5110736;28;20399;-66
2022/02/04 06:27:45;;;;;;;38.60;16.83;;;;;;;0.81;79.73;98134.28;5111091;28;20031;-66
2022/02/04 06:30:12;;;;;;;37.67;17.40;;;;;;;0.80;79.47;98139.94;5111175;28;20012;-65
2022/02/04 06:32:37;;;;;;;34.35;15.55;;;;;;;0.82;79.52;98152.13;5110509;28;20035;-65
2022/02/04 06:35:08;;;;;;;37.00;15.90;;;;;;;0.83;79.39;98153.75;5092678;28;20088;-65
2022/02/04 06:37:34;;;;;;;35.47;16.65;;;;;;;0.84;79.50;98150.00;5092644;28;20030;-65
2022/02/04 06:40:00;;;;;;;35.30;16.55;;;;;;;0.87;80.09;98159.47;5110868;28;20028;-66
2022/02/04 06:42:28;;;;;;;35.22;15.55;;;;;;;0.90;80.08;98159.00;5110668;28;20022;-66
2022/02/04 06:44:54;;;;;;;34.75;15.80;;;;;;;0.94;79.49;98156.66;5110902;28;20032;-66
2022/02/04 06:47:20;;;;;;;35.63;15.30;;;;;;;0.98;79.85;98155.91;5091047;28;20035;-66
2022/02/04 06:49:46;;;;;;;31.50;14.23;;;;;;;1.00;79.78;98158.41;5109912;28;20035;-66
2022/02/04 06:52:12;;;;;;;31.33;15.68;;;;;;;1.04;79.11;98164.94;5091016;28;20039;-65
2022/02/04 06:54:38;;;;;;;33.63;15.65;;;;;;;1.10;79.80;98155.06;5109533;28;20368;-65
2022/02/04 06:57:03;;;;;;;33.85;15.70;;;;;;;1.15;79.47;98149.75;5091424;28;20064;-65
2022/02/04 06:59:29;;;;;;;38.10;15.68;;;;;;;1.18;79.58;98155.47;5109149;28;20023;-65
2022/02/04 07:01:55;;;;;;;33.45;16.02;;;;;;;1.24;79.02;98167.19;5110045;28;20015;-66
2022/02/04 07:04:20;;;;;;;33.70;14.75;;;;;;;1.28;79.38;98165.63;5109482;28;20072;-66
2022/02/04 07:06:54;;;;;;;28.27;14.80;;;;;;;1.32;79.19;98168.69;5110267;28;20352;-66
2022/02/04 07:14:45;;;;;;;37.10;15.23;;;;;;;1.42;77.99;98178.84;5109534;28;20032;-67
2022/02/04 07:19:49;;;;;;;36.63;15.82;;;;;;;1.43;78.18;98184.00;5110652;28;20039;-67
2022/02/04 07:22:19;;;;;;;41.63;15.90;;;;;;;1.45;77.90;98178.38;5110306;28;20069;-67
2022/02/04 07:24:50;;;;;;;38.45;15.45;;;;;;;1.47;78.17;98174.34;5109457;28;20045;-67
2022/02/04 07:27:15;;;;;;;36.00;14.40;;;;;;;1.49;77.92;98179.53;5109758;28;20027;-66
2022/02/04 07:29:43;;;;;;;36.10;15.32;;;;;;;1.51;77.81;98174.69;5109888;28;20028;-67
2022/02/04 07:32:24;;;;;;;34.97;14.50;;;;;;;1.55;78.58;98181.25;5109914;28;20069;-66
2022/02/04 07:38:33;;;;;;;40.80;15.73;;;;;;;1.58;77.36;98179.94;5109440;28;20016;-66
2022/02/04 07:43:04;;;;;;;48.33;16.55;;;;;;;1.65;78.03;98194.13;5109590;28;20120;-66
2022/02/04 07:45:33;;;;;;;40.83;16.08;;;;;;;1.67;78.02;98191.16;5089003;28;20032;-66
2022/02/04 07:47:59;;;;;;;44.95;15.95;;;;;;;1.71;77.62;98190.44;5108735;28;20483;-66
2022/02/04 07:50:26;;;;;;;48.42;16.98;;;;;;;1.74;77.16;98187.25;5109818;28;20043;-67
2022/02/04 07:52:52;;;;;;;33.53;14.73;;;;;;;1.83;77.62;98187.66;5109287;28;20525;-66
2022/02/04 07:55:18;;;;;;;33.78;14.45;;;;;;;1.92;77.46;98188.06;5089258;28;20046;-66
2022/02/04 07:57:44;;;;;;;30.30;12.82;;;;;;;1.99;77.29;98186.00;5108869;28;20078;-67
2022/02/04 08:00:14;;;;;;;32.72;13.90;;;;;;;2.05;76.82;98184.19;5087237;28;20028;-65
2022/02/04 08:02:40;;;;;;;36.80;14.30;;;;;;;2.11;76.83;98179.69;5109861;28;20024;-67
2022/02/04 08:05:07;;;;;;;30.52;12.80;;;;;;;2.18;76.26;98180.34;5109452;28;20030;-66
2022/02/04 08:07:40;;;;;;;33.63;15.00;;;;;;;2.23;75.61;98173.13;5090276;28;20404;-68
2022/02/04 08:10:20;;;;;;;28.55;12.93;;;;;;;2.32;75.81;98170.78;5108175;28;20391;-68
2022/02/04 08:28:48;;;;;;;23.05;10.32;;;;;;;2.75;73.75;98176.50;5109854;28;20042;-67
2022/02/04 08:46:40;;;;;;;24.75;11.70;;;;;;;2.92;72.99;98181.03;5109292;28;20402;-67
2022/02/04 08:51:00;;;;;;;30.90;15.48;;;;;;;3.09;72.87;98176.34;5109559;28;20036;-67
2022/02/04 08:56:10;;;;;;;28.08;11.50;;;;;;;3.17;72.20;98195.94;5108801;28;20043;-67
2022/02/04 08:58:50;;;;;;;23.45;9.13;;;;;;;3.20;71.39;98192.72;5109281;28;20024;-68
2022/02/04 09:01:25;;;;;;;22.90;9.07;;;;;;;3.21;71.65;98191.66;5109191;28;20432;-66
2022/02/04 09:04:05;;;;;;;22.33;10.70;;;;;;;3.23;71.72;98190.31;5108947;28;20031;-66
2022/02/04 09:06:37;;;;;;;;;;;;;;;3.28;70.62;98193.09;5105277;28;20483;-66
2022/02/04 09:09:05;;;;;;;20.45;8.25;;;;;;;3.30;71.06;98186.59;5108653;28;19919;-66
2022/02/04 09:19:43;;;;;;;19.60;7.88;;;;;;;3.33;70.31;98188.81;5112589;28;20145;-66
2022/02/04 09:24:43;;;;;;;18.20;7.70;;;;;;;3.44;70.44;98190.53;5111464;28;20035;-66
2022/02/04 09:27:09;;;;;;;17.65;7.38;;;;;;;3.45;69.67;98184.06;5111864;28;20027;-66
2022/02/04 09:29:34;;;;;;;14.85;7.38;;;;;;;3.48;68.89;98183.50;5112645;28;20023;-66
2022/02/04 09:32:00;;;;;;;15.48;7.40;;;;;;;3.52;69.39;98183.84;5111615;28;20494;-65
2022/02/04 09:34:25;;;;;;;17.50;8.13;;;;;;;3.54;68.63;98184.41;5110547;28;20043;-65
2022/02/04 09:36:51;;;;;;;14.50;6.93;;;;;;;3.54;68.23;98185.19;5111816;27;20055;-66
2022/02/04 09:39:16;;;;;;;14.55;6.60;;;;;;;3.53;68.81;98186.28;5111873;28;20088;-66
2022/02/04 09:41:42;;;;;;;16.10;6.47;;;;;;;3.53;68.17;98183.56;5111526;28;20027;-66
2022/02/04 09:44:07;;;;;;;14.88;6.93;;;;;;;3.52;68.74;98194.69;5092329;28;20052;-66
2022/02/04 09:46:35;;;;;;;15.18;6.95;;;;;;;3.50;69.13;98186.78;5111153;27;20043;-70
2022/02/04 09:49:08;;;;;;;16.05;7.30;;;;;;;3.49;67.93;98187.06;5111736;27;20039;-69
2022/02/04 10:04:16;;;;;;;15.35;6.78;;;;;;;3.46;68.49;98184.84;5110069;28;20084;-65
2022/02/04 10:17:06;;;;;;;21.00;7.80;;;;;;;3.48;67.54;98185.41;5112728;27;20554;-66
2022/02/04 10:22:11;;;;;;;17.77;8.20;;;;;;;3.43;66.55;98187.00;5109366;28;20036;-67
2022/02/04 10:24:36;;;;;;;17.83;8.27;;;;;;;3.40;66.73;98186.72;5110324;27;20027;-69
2022/02/04 10:27:22;;;;;;;18.27;8.05;;;;;;;3.39;66.52;98176.94;5114280;27;20153;-66
2022/02/04 10:29:55;;;;;;;14.27;6.47;;;;;;;3.38;67.01;98176.09;5113070;27;20047;-65
2022/02/04 10:32:45;;;;;;;15.13;6.90;;;;;;;3.39;67.36;98172.31;5107616;28;20088;-66
2022/02/04 10:35:21;;;;;;;;;;;;;;;3.40;67.93;98176.66;5083855;27;20043;-67
2022/02/04 10:37:59;;;;;;;14.20;6.80;;;;;;;3.42;67.92;98171.00;5107321;28;19915;-64
2022/02/04 10:40:48;;;;;;;15.65;7.05;;;;;;;3.43;67.09;98154.47;5111657;27;20102;-66
2022/02/04 10:46:51;;;;;;;20.27;8.38;;;;;;;3.51;67.22;98169.44;5108409;28;20487;-66
2022/02/04 10:59:34;;;;;;;15.93;7.07;;;;;;;4.00;66.52;98154.09;5106372;28;20452;-66
2022/02/04 11:02:17;;;;;;;19.20;9.15;;;;;;;4.15;66.01;98156.09;5110922;27;20040;-66
2022/02/04 11:05:12;;;;;;;20.13;8.75;;;;;;;4.30;66.50;98158.91;5110556;27;20024;-66
2022/02/04 11:10:20;;;;;;;18.60;8.55;;;;;;;4.60;65.74;98149.28;5109860;28;20104;-65
2022/02/04 11:54:56;;;;;;;23.92;11.02;;;;;;;4.10;65.67;98146.03;5110432;27;20031;-65
2022/02/04 11:57:26;;;;;;;36.03;18.20;;;;;;;4.09;65.25;98136.25;5109821;27;20047;-66
2022/02/04 12:00:06;;;;;;;32.35;16.60;;;;;;;4.10;65.67;98134.34;5088700;28;20061;-66
2022/02/04 12:02:35;;;;;;;23.88;12.55;;;;;;;4.17;66.56;98133.06;5107895;27;20035;-65
2022/02/04 12:05:03;;;;;;;15.93;8.40;;;;;;;4.22;65.49;98126.03;5109003;27;20051;-67
2022/02/04 12:07:37;;;;;;;17.65;7.90;;;;;;;4.23;65.80;98127.66;5109681;28;20023;-66
2022/02/04 12:10:11;;;;;;;17.02;8.40;;;;;;;4.22;65.91;98121.41;5109736;27;20067;-67
2022/02/04 12:12:52;;;;;;;21.23;10.20;;;;;;;4.24;66.25;98118.44;5110844;27;20039;-66
2022/02/04 12:15:37;;;;;;;21.67;9.70;;;;;;;4.29;66.00;98118.44;5091327;28;20098;-66
2022/02/04 12:18:05;;;;;;;20.67;10.30;;;;;;;4.34;66.41;98120.38;5088942;28;20161;-66
2022/02/04 12:20:46;;;;;;;19.98;9.27;;;;;;;4.38;66.49;98114.16;5109950;27;20020;-66
2022/02/04 12:23:33;;;;;;;17.08;9.45;;;;;;;4.45;66.50;98113.94;5106835;28;20016;-67
2022/02/04 12:26:33;;;;;;;19.30;9.45;;;;;;;4.50;66.24;98115.84;5091908;28;20406;-66
2022/02/04 12:29:05;;;;;;;;;;;;;;;4.57;66.18;98105.56;5109371;28;20039;-65
2022/02/04 12:31:32;;;;;;;20.70;9.73;;;;;;;4.60;67.00;98105.84;5109360;28;19924;-67
2022/02/04 12:34:19;;;;;;;17.60;9.57;;;;;;;4.67;66.55;98105.59;5088736;28;20036;-65
2022/02/04 12:36:52;;;;;;;19.73;10.38;;;;;;;4.68;66.57;98106.41;5086411;28;20303;-66
2022/02/04 12:39:22;;;;;;;20.65;10.07;;;;;;;4.70;66.98;98109.69;5109376;28;20275;-65
2022/02/04 12:41:48;;;;;;;16.75;9.75;;;;;;;4.71;67.07;98108.59;5108995;28;20484;-66
2022/02/04 12:44:19;;;;;;;19.20;9.32;;;;;;;4.67;66.35;98105.59;5108785;28;20048;-66
2022/02/04 12:46:47;;;;;;;20.70;9.30;;;;;;;4.64;66.73;98110.72;5110798;28;20032;-66
2022/02/04 12:49:18;;;;;;;18.23;9.52;;;;;;;4.62;67.21;98106.38;5113375;28;20015;-67
2022/02/04 12:54:25;;;;;;;;;;;;;;;4.55;66.79;98102.28;5112693;28;20088;-65
2022/02/04 12:59:54;;;;;;;17.38;8.70;;;;;;;4.53;67.74;98088.97;5112447;28;20027;-70
2022/02/04 13:10:26;;;;;;;15.13;8.43;;;;;;;4.76;68.29;98076.81;5112417;28;20040;-66
2022/02/04 13:12:59;;;;;;;16.05;8.35;;;;;;;4.82;67.81;98079.53;5112878;28;20030;-68
2022/02/04 13:15:28;;;;;;;17.92;8.88;;;;;;;4.82;67.79;98076.84;5112776;28;20035;-67
2022/02/04 13:17:54;;;;;;;15.27;8.50;;;;;;;4.81;67.54;98072.47;5111119;28;20067;-66
2022/02/04 13:20:22;;;;;;;19.10;8.60;;;;;;;4.80;67.29;98073.56;5109831;28;20028;-66
2022/02/04 13:22:54;;;;;;;18.23;8.85;;;;;;;4.83;67.83;98067.59;5113258;28;20483;-66
2022/02/04 13:25:20;;;;;;;18.38;8.27;;;;;;;4.80;67.97;98066.25;5093999;28;20065;-66
2022/02/04 13:28:03;;;;;;;20.13;9.80;;;;;;;4.81;68.21;98072.47;5112424;28;20136;-66
2022/02/04 13:30:34;;;;;;;19.48;9.70;;;;;;;4.77;68.08;98067.59;5108769;28;20114;-66
2022/02/04 13:33:01;;;;;;;22.02;12.23;;;;;;;4.73;67.87;98062.97;5094118;28;20042;-66
2022/02/04 13:35:28;;;;;;;21.75;11.65;;;;;;;4.69;68.43;98062.66;5111470;27;20034;-66
2022/02/04 13:37:58;;;;;;;17.83;9.35;;;;;;;4.69;68.47;98056.44;5111179;28;20082;-64
2022/02/04 13:40:41;;;;;;;;;;;;;;;4.67;68.28;98062.13;5110920;28;20112;-66
2022/02/04 13:43:26;;;;;;;20.60;9.32;;;;;;;4.68;68.83;98062.94;5108981;28;19920;-66
2022/02/04 13:46:09;;;;;;;18.50;9.93;;;;;;;4.72;68.82;98055.91;5092452;28;20024;-65
2022/02/04 13:48:54;;;;;;;18.63;9.05;;;;;;;4.69;68.70;98059.94;5107744;28;20384;-67
2022/02/04 13:51:37;;;;;;;21.27;10.23;;;;;;;4.63;68.93;98063.75;5096948;28;20031;-66
2022/02/04 13:55:04;;;;;;;18.60;9.85;;;;;;;4.59;68.88;98068.88;5110101;28;20020;-66
2022/02/04 13:57:09;;;;;;;21.70;10.80;;;;;;;4.55;69.50;98061.56;5097516;28;20043;-66
2022/02/04 13:59:42;;;;;;;20.13;10.38;;;;;;;4.49;68.88;98068.84;5112481;28;20431;-66
2022/02/04 14:02:14;;;;;;;22.88;12.15;;;;;;;4.45;69.43;98068.56;5091890;28;20030;-66
2022/02/04 14:05:00;;;;;;;20.70;10.70;;;;;;;4.41;69.75;98063.94;5112455;28;20060;-66
2022/02/04 14:07:51;;;;;;;21.77;10.75;;;;;;;4.36;69.45;98070.16;5112251;28;20031;-66
2022/02/04 14:10:29;;;;;;;32.53;14.77;;;;;;;4.32;69.75;98061.75;5112116;28;20096;-66
2022/02/04 14:13:13;;;;;;;29.05;13.82;;;;;;;4.30;69.91;98054.91;5112195;28;20035;-67
2022/02/04 14:15:42;;;;;;;27.33;13.30;;;;;;;4.28;70.13;98059.81;5112684;28;20544;-66
2022/02/04 14:18:10;;;;;;;23.67;12.38;;;;;;;4.25;70.66;98060.34;5110310;28;20119;-67
2022/02/04 14:20:38;;;;;;;22.08;12.10;;;;;;;4.23;70.34;98068.75;5106360;27;20035;-65
2022/02/04 14:23:06;;;;;;;25.25;13.13;;;;;;;4.20;71.04;98061.13;5111979;27;20051;-66
2022/02/04 14:25:42;;;;;;;35.75;15.30;;;;;;;4.14;70.73;98068.44;5112057;27;20055;-66
2022/02/04 14:28:10;;;;;;;30.13;15.10;;;;;;;4.10;71.47;98055.66;5108053;28;20031;-66
2022/02/04 14:30:37;;;;;;;41.33;17.13;;;;;;;4.11;71.22;98062.72;5110196;27;20475;-65
2022/02/04 14:33:25;;;;;;;38.92;17.05;;;;;;;4.12;71.20;98075.19;5110476;28;20016;-66
2022/02/04 14:51:56;;;;;;;43.58;18.23;;;;;;;3.88;71.94;98081.03;5111269;28;20027;-67
2022/02/04 15:05:31;;;;;;;33.03;16.52;;;;;;;3.76;72.48;98073.09;5078040;28;20044;-66
2022/02/04 15:08:01;;;;;;;31.35;14.93;;;;;;;3.77;72.81;98071.19;5091798;28;20035;-66
2022/02/04 15:10:30;;;;;;;29.55;14.93;;;;;;;3.76;72.58;98067.69;5108131;28;20480;-65
2022/02/04 15:12:56;;;;;;;41.85;19.40;;;;;;;3.75;72.50;98074.19;5110234;28;20039;-66
2022/02/04 15:15:22;;;;;;;26.67;14.23;;;;;;;3.76;73.03;98072.28;5110008;28;20028;-66
2022/02/04 15:17:47;;;;;;;29.48;15.10;;;;;;;3.73;72.71;98071.72;5109680;28;20032;-66
2022/02/04 15:20:13;;;;;;;31.50;15.07;;;;;;;3.72;72.67;98074.69;5110391;28;20023;-65
2022/02/04 15:22:39;;;;;;;38.92;22.73;;;;;;;3.68;72.67;98074.38;5109407;27;20024;-65
2022/02/04 15:25:16;;;;;;;30.95;16.27;;;;;;;3.66;72.83;98073.03;5108603;28;20038;-66
2022/02/04 15:27:48;;;;;;;29.50;15.77;;;;;;;3.63;72.58;98063.53;5108547;28;20022;-66
2022/02/04 15:30:25;;;;;;;34.05;17.92;;;;;;;3.61;73.47;98068.41;5106915;28;20031;-65
2022/02/04 15:32:51;;;;;;;31.67;16.48;;;;;;;3.60;72.97;98069.47;5110214;28;20027;-66
2022/02/04 15:35:16;;;;;;;28.95;14.73;;;;;;;3.60;73.21;98065.94;5109031;28;20277;-68
2022/02/04 15:37:42;;;;;;;29.27;14.90;;;;;;;3.57;73.09;98059.94;5108117;28;20027;-70
2022/02/04 15:40:09;;;;;;;28.23;14.50;;;;;;;3.56;73.14;98061.03;5109317;28;20027;-64
2022/02/04 15:42:36;;;;;;;24.38;13.55;;;;;;;3.57;73.47;98051.00;5109004;28;20104;-68
2022/02/04 15:45:58;;;;;;;28.17;16.27;;;;;;;3.57;72.69;98056.44;5109570;28;20020;-66
2022/02/04 15:56:13;;;;;;;26.98;12.73;;;;;;;3.53;73.17;98052.59;5081623;28;19979;-66
2022/02/04 16:06:37;;;;;;;26.02;13.57;;;;;;;3.40;73.07;98043.81;5055758;28;20529;-66
2022/02/04 16:09:03;;;;;;;28.45;14.43;;;;;;;3.39;73.32;98046.81;5070504;28;20028;-66
2022/02/04 16:16:38;;;;;;;23.02;13.57;;;;;;;3.41;73.42;98041.94;5076029;28;20149;-65
2022/02/04 16:19:14;;;;;;;26.88;15.57;;;;;;;3.40;73.40;98034.88;5076439;28;20016;-65
2022/02/04 16:29:46;;;;;;;32.53;16.30;;;;;;;3.33;73.76;98048.66;5084361;28;20157;-66
2022/02/04 16:32:13;;;;;;;32.72;17.23;;;;;;;3.34;73.66;98054.91;5084230;28;20128;-66
2022/02/04 16:34:39;;;;;;;36.63;17.75;;;;;;;3.32;74.18;98046.22;5084032;28;20083;-65
2022/02/04 16:37:15;;;;;;;28.23;15.95;;;;;;;3.31;73.98;98042.66;5076806;28;20491;-67
2022/02/04 16:39:46;;;;;;;45.70;21.38;;;;;;;3.28;73.67;98054.84;5074927;28;20028;-67
2022/02/04 16:42:14;;;;;;;39.67;18.38;;;;;;;3.29;73.93;98047.53;5082154;28;20484;-67
2022/02/04 16:44:41;;;;;;;49.20;19.77;;;;;;;3.27;73.85;98038.84;5085457;28;20489;-68
2022/02/04 16:47:07;;;;;;;47.22;20.38;;;;;;;3.26;74.13;98035.31;5087229;28;20036;-68
2022/02/04 16:49:33;;;;;;;49.05;21.45;;;;;;;3.25;73.68;98043.72;5086590;28;20019;-68
2022/02/04 16:51:58;;;;;;;45.22;19.15;;;;;;;3.24;73.57;98040.19;5085308;28;20453;-68
2022/02/04 16:54:26;;;;;;;49.50;21.02;;;;;;;3.27;74.46;98044.25;5084722;28;20032;-67
2022/02/04 16:56:53;;;;;;;41.40;19.25;;;;;;;3.24;74.19;98051.03;5080322;28;20055;-68
2022/02/04 16:59:19;;;;;;;44.80;21.70;;;;;;;3.24;73.87;98037.47;5075003;28;20036;-68
2022/02/04 17:01:45;;;;;;;46.17;20.85;;;;;;;3.25;73.82;98041.81;5077855;28;20024;-68
2022/02/04 17:04:12;;;;;;;50.42;22.20;;;;;;;3.27;73.89;98044.25;5084383;28;20032;-66
2022/02/04 17:06:41;;;;;;;41.97;19.30;;;;;;;3.28;74.42;98048.59;5077396;28;20681;-66
2022/02/04 17:11:46;;;;;;;42.60;18.65;;;;;;;3.27;74.21;98033.41;5085834;28;20493;-66
2022/02/04 17:14:13;;;;;;;42.90;19.55;;;;;;;3.24;74.54;98037.47;5085757;28;20035;-66
2022/02/04 17:16:42;;;;;;;43.20;19.02;;;;;;;3.26;73.60;98035.31;5085434;28;20042;-67
2022/02/04 17:19:11;;;;;;;45.38;21.88;;;;;;;3.28;73.79;98032.34;5077728;28;20038;-66
2022/02/04 17:21:38;;;;;;;40.40;18.55;;;;;;;3.29;74.15;98025.84;5067688;28;20419;-67
2022/02/04 17:24:04;;;;;;;36.50;17.70;;;;;;;3.30;73.54;98029.38;5079669;28;20575;-67
2022/02/04 17:26:30;;;;;;;41.05;18.80;;;;;;;3.30;73.56;98027.47;5085714;28;20035;-67
2022/02/04 17:28:55;;;;;;;42.60;21.58;;;;;;;3.31;73.94;98023.69;5084600;28;20038;-67
2022/02/04 17:31:21;;;;;;;46.35;21.83;;;;;;;3.34;73.87;98025.09;5085043;28;20395;-66
2022/02/04 17:33:47;;;;;;;46.55;22.60;;;;;;;3.35;74.18;98024.00;5088542;28;20070;-66
2022/02/04 17:36:13;;;;;;;39.58;21.25;;;;;;;3.37;73.91;98017.25;5086682;28;20031;-66
2022/02/04 17:38:42;;;;;;;35.35;18.55;;;;;;;3.40;74.00;98016.72;5085699;28;20035;-67
2022/02/04 17:41:08;;;;;;;34.70;16.17;;;;;;;3.42;73.83;98009.13;5081402;28;20081;-66
2022/02/04 17:43:34;;;;;;;32.38;15.95;;;;;;;3.42;73.97;98016.47;5077342;28;20071;-67
2022/02/04 17:46:00;;;;;;;30.40;15.23;;;;;;;3.41;73.38;98006.72;5067098;28;20120;-68
2022/02/04 17:48:39;;;;;;;28.70;15.27;;;;;;;3.41;73.90;98004.00;5086463;28;20147;-68
2022/02/04 17:53:44;;;;;;;32.50;16.85;;;;;;;3.48;73.69;97993.72;5089093;28;20455;-67
2022/02/04 17:56:25;;;;;;;31.40;15.57;;;;;;;3.48;73.77;97991.00;5088288;27;20020;-66
2022/02/04 17:59:07;;;;;;;26.65;13.13;;;;;;;3.49;73.73;97989.13;5087980;28;20062;-65
2022/02/04 18:09:19;;;;;;;28.25;14.07;;;;;;;3.46;72.79;97985.06;5090947;28;20126;-65
2022/02/04 18:11:44;;;;;;;25.73;12.45;;;;;;;3.47;72.94;97980.44;5085784;28;20142;-66
2022/02/04 18:14:11;;;;;;;29.55;15.00;;;;;;;3.48;72.80;97980.16;5087317;28;20190;-65
2022/02/04 18:16:37;;;;;;;29.10;14.10;;;;;;;3.49;73.00;97975.56;5088927;28;20082;-66
2022/02/04 18:19:02;;;;;;;30.25;14.95;;;;;;;3.51;72.85;97976.94;5089297;28;20527;-66
2022/02/04 18:21:28;;;;;;;29.08;14.57;;;;;;;3.51;72.68;97968.00;5085196;28;20537;-66
2022/02/04 18:23:53;;;;;;;33.45;15.93;;;;;;;3.52;72.74;97969.63;5077791;28;20051;-67
2022/02/04 18:26:19;;;;;;;28.95;14.80;;;;;;;3.53;72.24;97972.06;5082290;28;20043;-66
2022/02/04 18:28:44;;;;;;;33.08;15.75;;;;;;;3.53;72.25;97968.53;5091189;28;20055;-66